Time,TemperatureF,DewpointF,PressureIn,WindDirection,WindDirectionDegrees,WindSpeedMPH,WindSpeedGustMPH,Humidity,HourlyPrecipIn,Conditions,Clouds,dailyrainin,SolarRadiationWatts/m^2,SoftwareType,DateUTC
2013-12-27 00:01:00,39.8,4.1,30.24,South,176,2.0,3.0,22,0.00,,,0.00,0,WeatherCatV1.23B16,2013-12-27 08:01:00,
2013-12-27 00:06:00,39.6,3.9,30.24,West,263,2.0,4.0,22,0.00,,,0.00,0,WeatherCatV1.23B16,2013-12-27 08:06:00,
2013-12-27 00:11:00,39.3,4.6,30.24,West,264,0.0,2.0,23,0.00,,,0.00,0,WeatherCatV1.23B16,2013-12-27 08:11:00,
2013-12-27 00:16:00,39.1,5.4,30.27,West,264,0.0,0.0,24,0.00,,,0.00,0,WeatherCatV1.23B16,2013-12-27 08:16:00,
2013-12-27 00:21:00,38.5,4.9,30.27,West,265,3.0,4.0,24,0.00,,,0.00,0,WeatherCatV1.23B16,2013-12-27 08:21:00,
2013-12-27 00:26:00,37.9,7.7,30.27,West,266,2.0,3.0,28,0.00,,,0.00,0,WeatherCatV1.23B16,2013-12-27 08:26:00,
2013-12-27 00:31:00,37.5,11.0,30.27,West,267,3.0,3.0,33,0.00,,,0.00,0,WeatherCatV1.23B16,2013-12-27 08:31:00,
2013-12-27 00:36:00,37.0,10.6,30.27,West,268,2.0,3.0,33,0.00,,,0.00,0,WeatherCatV1.23B16,2013-12-27 08:36:00,
2013-12-27 00:41:00,36.8,9.0,30.27,West,268,1.0,5.0,31,0.00,,,0.00,0,WeatherCatV1.23B16,2013-12-27 08:41:00,
2013-12-27 00:46:00,36.6,8.9,30.27,West,267,3.0,3.0,31,0.00,,,0.00,0,WeatherCatV1.23B16,2013-12-27 08:46:00,
2013-12-27 00:51:00,36.6,8.9,30.27,West,268,2.0,3.0,31,0.00,,,0.00,0,WeatherCatV1.23B16,2013-12-27 08:51:00,
2013-12-27 00:56:00,36.8,9.0,30.27,West,276,3.0,4.0,31,0.00,,,0.00,0,WeatherCatV1.23B16,2013-12-27 08:56:00,
2013-12-27 01:01:00,36.9,8.4,30.28,WNW,293,5.0,6.0,30,0.00,,,0.00,0,WeatherCatV1.23B16,2013-12-27 09:01:00,
2013-12-27 01:06:00,36.8,9.0,30.28,WNW,297,7.0,7.0,31,0.00,,,0.00,0,WeatherCatV1.23B16,2013-12-27 09:06:00,
2013-12-27 01:11:00,36.6,9.6,30.28,NW,304,6.0,7.0,32,0.00,,,0.00,0,WeatherCatV1.23B16,2013-12-27 09:11:00,
2013-12-27 01:16:00,36.3,10.6,30.27,WNW,301,4.0,6.0,34,0.00,,,0.00,0,WeatherCatV1.23B16,2013-12-27 09:16:00,
2013-12-27 01:21:00,36.2,11.2,30.27,WNW,288,6.0,7.0,35,0.00,,,0.00,0,WeatherCatV1.23B16,2013-12-27 09:21:00,
2013-12-27 01:26:00,35.9,10.9,30.27,WNW,293,6.0,6.0,35,0.00,,,0.00,0,WeatherCatV1.23B16,2013-12-27 09:26:00,
2013-12-27 01:31:00,35.6,11.3,30.28,WNW,293,5.0,9.0,36,0.00,,,0.00,0,WeatherCatV1.23B16,2013-12-27 09:31:00,
2013-12-27 01:36:00,35.5,11.8,30.28,NW,305,7.0,8.0,37,0.00,,,0.00,0,WeatherCatV1.23B16,2013-12-27 09:36:00,
2013-12-27 01:41:00,35.2,12.2,30.28,WNW,293,7.0,10.0,38,0.00,,,0.00,0,WeatherCatV1.23B16,2013-12-27 09:41:00,
2013-12-27 01:46:00,34.7,12.3,30.29,WNW,293,6.0,7.0,39,0.00,,,0.00,0,WeatherCatV1.23B16,2013-12-27 09:46:00,
2013-12-27 01:51:00,34.4,12.6,30.29,NW,308,4.0,7.0,40,0.00,,,0.00,0,WeatherCatV1.23B16,2013-12-27 09:51:00,
2013-12-27 01:56:00,34.3,13.6,30.29,NW,310,3.0,5.0,42,0.00,,,0.00,0,WeatherCatV1.23B16,2013-12-27 09:56:00,
2013-12-27 02:01:00,34.3,13.1,30.30,WNW,299,5.0,6.0,41,0.00,,,0.00,0,WeatherCatV1.23B16,2013-12-27 10:01:00,
2013-12-27 02:06:00,34.3,13.1,30.30,NW,309,4.0,6.0,41,0.00,,,0.00,0,WeatherCatV1.23B16,2013-12-27 10:06:00,
2013-12-27 02:11:00,34.4,13.2,30.30,WNW,299,4.0,5.0,41,0.00,,,0.00,0,WeatherCatV1.23B16,2013-12-27 10:11:00,
2013-12-27 02:16:00,34.4,13.2,30.32,NW,310,2.0,4.0,41,0.00,,,0.00,0,WeatherCatV1.23B16,2013-12-27 10:16:00,
2013-12-27 02:21:00,34.4,13.2,30.32,NW,311,2.0,4.0,41,0.00,,,0.00,0,WeatherCatV1.23B16,2013-12-27 10:21:00,
2013-12-27 02:26:00,34.4,13.2,30.32,WNW,302,5.0,6.0,41,0.00,,,0.00,0,WeatherCatV1.23B16,2013-12-27 10:26:00,
2013-12-27 02:31:00,34.4,13.7,30.32,NW,304,3.0,6.0,42,0.00,,,0.00,0,WeatherCatV1.23B16,2013-12-27 10:31:00,
2013-12-27 02:36:00,34.4,14.2,30.32,NW,304,2.0,2.0,43,0.00,,,0.00,0,WeatherCatV1.23B16,2013-12-27 10:36:00,
2013-12-27 02:41:00,34.3,14.2,30.32,NW,304,4.0,4.0,43,0.00,,,0.00,0,WeatherCatV1.23B16,2013-12-27 10:41:00,
2013-12-27 02:46:00,34.4,14.8,30.32,WNW,288,4.0,5.0,44,0.00,,,0.00,0,WeatherCatV1.23B16,2013-12-27 10:46:00,
2013-12-27 02:51:00,34.4,14.8,30.32,WNW,283,3.0,5.0,44,0.00,,,0.00,0,WeatherCatV1.23B16,2013-12-27 10:51:00,
2013-12-27 02:56:00,34.4,14.2,30.32,WNW,283,2.0,4.0,43,0.00,,,0.00,0,WeatherCatV1.23B16,2013-12-27 10:56:00,
2013-12-27 03:01:00,34.4,14.2,30.32,WNW,297,6.0,6.0,43,0.00,,,0.00,0,WeatherCatV1.23B16,2013-12-27 11:01:00,
2013-12-27 03:06:00,34.3,14.2,30.32,WNW,283,4.0,6.0,43,0.00,,,0.00,0,WeatherCatV1.23B16,2013-12-27 11:06:00,
2013-12-27 03:11:00,34.1,13.4,30.32,WNW,283,3.0,4.0,42,0.00,,,0.00,0,WeatherCatV1.23B16,2013-12-27 11:11:00,
2013-12-27 03:16:00,34.1,12.9,30.35,WNW,283,3.0,4.0,41,0.00,,,0.00,0,WeatherCatV1.23B16,2013-12-27 11:16:00,
2013-12-27 03:21:00,34.1,10.6,30.35,West,274,3.0,5.0,37,0.00,,,0.00,0,WeatherCatV1.23B16,2013-12-27 11:21:00,
2013-12-27 03:26:00,34.3,9.5,30.35,West,279,4.0,5.0,35,0.00,,,0.00,0,WeatherCatV1.23B16,2013-12-27 11:26:00,
2013-12-27 03:31:00,34.7,9.2,30.33,WNW,283,4.0,5.0,34,0.00,,,0.00,0,WeatherCatV1.23B16,2013-12-27 11:31:00,
2013-12-27 03:36:00,34.9,9.4,30.33,WNW,283,4.0,5.0,34,0.00,,,0.00,0,WeatherCatV1.23B16,2013-12-27 11:36:00,
2013-12-27 03:41:00,35.2,9.7,30.33,WNW,283,5.0,5.0,34,0.00,,,0.00,0,WeatherCatV1.23B16,2013-12-27 11:41:00,
2013-12-27 03:46:00,35.2,9.7,30.33,WNW,288,2.0,5.0,34,0.00,,,0.00,0,WeatherCatV1.23B16,2013-12-27 11:46:00,
2013-12-27 03:51:00,35.2,10.3,30.33,WNW,288,3.0,4.0,35,0.00,,,0.00,0,WeatherCatV1.23B16,2013-12-27 11:51:00,
2013-12-27 03:56:00,35.2,9.7,30.33,West,277,3.0,5.0,34,0.00,,,0.00,0,WeatherCatV1.23B16,2013-12-27 11:56:00,
2013-12-27 04:01:00,35.3,9.1,30.32,West,277,0.0,4.0,33,0.00,,,0.00,0,WeatherCatV1.23B16,2013-12-27 12:01:00,
2013-12-27 04:06:00,35.3,9.1,30.32,West,278,3.0,4.0,33,0.00,,,0.00,0,WeatherCatV1.23B16,2013-12-27 12:06:00,
2013-12-27 04:11:00,35.5,7.9,30.32,WNW,283,4.0,4.0,31,0.00,,,0.00,0,WeatherCatV1.23B16,2013-12-27 12:11:00,
2013-12-27 04:16:00,35.6,8.7,30.33,WNW,283,2.0,3.0,32,0.00,,,0.00,0,WeatherCatV1.23B16,2013-12-27 12:16:00,
2013-12-27 04:21:00,35.6,8.0,30.33,WNW,283,1.0,3.0,31,0.00,,,0.00,0,WeatherCatV1.23B16,2013-12-27 12:21:00,
2013-12-27 04:26:00,35.6,8.0,30.33,WNW,283,2.0,3.0,31,0.00,,,0.00,0,WeatherCatV1.23B16,2013-12-27 12:26:00,
2013-12-27 04:31:00,35.6,7.3,30.33,WNW,283,0.0,0.0,30,0.00,,,0.00,0,WeatherCatV1.23B16,2013-12-27 12:31:00,
2013-12-27 04:36:00,35.6,5.0,30.33,WNW,283,0.0,4.0,27,0.00,,,0.00,0,WeatherCatV1.23B16,2013-12-27 12:36:00,
2013-12-27 04:41:00,35.6,5.8,30.33,WNW,283,2.0,2.0,28,0.00,,,0.00,0,WeatherCatV1.23B16,2013-12-27 12:41:00,
2013-12-27 04:46:00,35.8,5.9,30.33,WNW,283,3.0,3.0,28,0.00,,,0.00,0,WeatherCatV1.23B16,2013-12-27 12:46:00,
2013-12-27 04:51:00,35.8,5.9,30.33,WNW,283,3.0,4.0,28,0.00,,,0.00,0,WeatherCatV1.23B16,2013-12-27 12:51:00,
2013-12-27 04:56:00,35.8,6.7,30.33,WNW,283,0.0,2.0,29,0.00,,,0.00,0,WeatherCatV1.23B16,2013-12-27 12:56:00,
2013-12-27 05:01:00,35.6,6.5,30.33,WNW,283,0.0,2.0,29,0.00,,,0.00,0,WeatherCatV1.23B16,2013-12-27 13:01:00,
2013-12-27 05:06:00,35.5,5.7,30.33,WNW,283,2.0,4.0,28,0.00,,,0.00,0,WeatherCatV1.23B16,2013-12-27 13:06:00,
2013-12-27 05:11:00,35.6,5.8,30.33,WNW,283,0.0,3.0,28,0.00,,,0.00,0,WeatherCatV1.23B16,2013-12-27 13:11:00,
2013-12-27 05:16:00,35.8,5.9,30.33,WNW,283,0.0,3.0,28,0.00,,,0.00,0,WeatherCatV1.23B16,2013-12-27 13:16:00,
2013-12-27 05:21:00,35.9,6.0,30.33,WNW,283,1.0,3.0,28,0.00,,,0.00,0,WeatherCatV1.23B16,2013-12-27 13:21:00,
2013-12-27 05:26:00,36.0,7.6,30.33,WNW,283,3.0,4.0,30,0.00,,,0.00,0,WeatherCatV1.23B16,2013-12-27 13:26:00,
2013-12-27 05:31:00,35.9,8.2,30.33,WNW,283,3.0,5.0,31,0.00,,,0.00,0,WeatherCatV1.23B16,2013-12-27 13:31:00,
2013-12-27 05:36:00,35.9,8.9,30.33,WNW,283,2.0,4.0,32,0.00,,,0.00,0,WeatherCatV1.23B16,2013-12-27 13:36:00,
2013-12-27 05:41:00,35.8,9.5,30.33,West,277,2.0,5.0,33,0.00,,,0.00,0,WeatherCatV1.23B16,2013-12-27 13:41:00,
2013-12-27 05:46:00,35.5,9.9,30.33,West,279,4.0,4.0,34,0.00,,,0.00,0,WeatherCatV1.23B16,2013-12-27 13:46:00,
2013-12-27 05:51:00,35.5,9.9,30.33,WNW,283,3.0,4.0,34,0.00,,,0.00,0,WeatherCatV1.23B16,2013-12-27 13:51:00,
2013-12-27 05:56:00,35.5,10.6,30.33,WNW,283,5.0,6.0,35,0.00,,,0.00,0,WeatherCatV1.23B16,2013-12-27 13:56:00,
2013-12-27 06:01:00,35.3,10.4,30.33,WNW,283,4.0,6.0,35,0.00,,,0.00,0,WeatherCatV1.23B16,2013-12-27 14:01:00,
2013-12-27 06:06:00,35.3,10.4,30.33,WNW,288,5.0,6.0,35,0.00,,,0.00,0,WeatherCatV1.23B16,2013-12-27 14:06:00,
2013-12-27 06:11:00,35.3,10.4,30.33,WNW,288,5.0,6.0,35,0.00,,,0.00,0,WeatherCatV1.23B16,2013-12-27 14:11:00,
2013-12-27 06:16:00,35.3,9.8,30.33,WNW,293,5.0,6.0,34,0.00,,,0.00,0,WeatherCatV1.23B16,2013-12-27 14:16:00,
2013-12-27 06:21:00,35.3,8.4,30.33,WNW,293,5.0,6.0,32,0.00,,,0.00,0,WeatherCatV1.23B16,2013-12-27 14:21:00,
2013-12-27 06:26:00,35.5,9.3,30.33,WNW,293,5.0,7.0,33,0.00,,,0.00,0,WeatherCatV1.23B16,2013-12-27 14:26:00,
2013-12-27 06:31:00,35.6,10.0,30.33,WNW,293,4.0,6.0,34,0.00,,,0.00,0,WeatherCatV1.23B16,2013-12-27 14:31:00,
2013-12-27 06:36:00,35.6,10.0,30.33,WNW,288,4.0,4.0,34,0.00,,,0.00,0,WeatherCatV1.23B16,2013-12-27 14:36:00,
2013-12-27 06:41:00,35.5,10.6,30.33,WNW,288,2.0,4.0,35,0.00,,,0.00,0,WeatherCatV1.23B16,2013-12-27 14:41:00,
2013-12-27 06:46:00,35.3,10.4,30.33,WNW,288,1.0,4.0,35,0.00,,,0.00,0,WeatherCatV1.23B16,2013-12-27 14:46:00,
2013-12-27 06:51:00,35.0,10.1,30.33,WNW,288,0.0,0.0,35,0.00,,,0.00,0,WeatherCatV1.23B16,2013-12-27 14:51:00,
2013-12-27 06:56:00,34.7,10.5,30.33,WNW,288,2.0,2.0,36,0.00,,,0.00,0,WeatherCatV1.23B16,2013-12-27 14:56:00,
2013-12-27 07:01:00,34.4,10.9,30.33,WNW,288,3.0,4.0,37,0.00,,,0.00,0,WeatherCatV1.23B16,2013-12-27 15:01:00,
2013-12-27 07:06:00,34.3,10.8,30.33,WNW,288,1.0,4.0,37,0.00,,,0.00,0,WeatherCatV1.23B16,2013-12-27 15:06:00,
2013-12-27 07:11:00,34.3,10.1,30.33,WNW,288,3.0,3.0,36,0.00,,,0.00,5,WeatherCatV1.23B16,2013-12-27 15:11:00,
2013-12-27 07:16:00,34.3,8.2,30.35,WNW,288,0.0,0.0,33,0.00,,,0.00,5,WeatherCatV1.23B16,2013-12-27 15:16:00,
2013-12-27 07:21:00,34.4,9.0,30.35,WNW,288,0.0,2.0,34,0.00,,,0.00,5,WeatherCatV1.23B16,2013-12-27 15:21:00,
2013-12-27 07:26:00,34.6,9.8,30.35,WNW,288,0.0,4.0,35,0.00,,,0.00,7,WeatherCatV1.23B16,2013-12-27 15:26:00,
2013-12-27 07:31:00,34.6,11.0,30.33,WNW,288,1.0,4.0,37,0.00,,,0.00,12,WeatherCatV1.23B16,2013-12-27 15:31:00,
2013-12-27 07:36:00,34.6,11.0,30.33,WNW,288,2.0,3.0,37,0.00,,,0.00,19,WeatherCatV1.23B16,2013-12-27 15:36:00,
2013-12-27 07:41:00,34.6,11.6,30.33,WNW,288,3.0,4.0,38,0.00,,,0.00,26,WeatherCatV1.23B16,2013-12-27 15:41:00,
2013-12-27 07:46:00,34.6,11.6,30.34,WNW,288,2.0,3.0,38,0.00,,,0.00,35,WeatherCatV1.23B16,2013-12-27 15:46:00,
2013-12-27 07:51:00,34.6,12.2,30.34,WNW,288,5.0,6.0,39,0.00,,,0.00,46,WeatherCatV1.23B16,2013-12-27 15:51:00,
2013-12-27 07:56:00,34.7,12.9,30.34,WNW,283,5.0,6.0,40,0.00,,,0.00,58,WeatherCatV1.23B16,2013-12-27 15:56:00,
2013-12-27 08:01:00,34.7,12.9,30.34,WNW,283,4.0,5.0,40,0.00,,,0.00,70,WeatherCatV1.23B16,2013-12-27 16:01:00,
2013-12-27 08:06:00,34.7,12.9,30.34,WNW,293,7.0,7.0,40,0.00,,,0.00,65,WeatherCatV1.23B16,2013-12-27 16:06:00,
2013-12-27 08:11:00,34.9,11.9,30.34,WNW,288,5.0,6.0,38,0.00,,,0.00,70,WeatherCatV1.23B16,2013-12-27 16:11:00,
2013-12-27 08:16:00,34.9,13.1,30.36,WNW,283,5.0,5.0,40,0.00,,,0.00,74,WeatherCatV1.23B16,2013-12-27 16:16:00,
2013-12-27 08:21:00,34.9,11.3,30.36,WNW,303,3.0,5.0,37,0.00,,,0.00,77,WeatherCatV1.23B16,2013-12-27 16:21:00,
2013-12-27 08:27:00,35.2,7.6,30.36,WNW,299,4.0,6.0,31,0.00,,,0.00,90,WeatherCatV1.23B16,2013-12-27 16:27:00,
2013-12-27 08:32:00,35.5,10.6,30.36,WNW,297,5.0,6.0,35,0.00,,,0.00,97,WeatherCatV1.23B16,2013-12-27 16:32:00,
2013-12-27 08:37:00,35.5,11.8,30.36,WNW,293,4.0,7.0,37,0.00,,,0.00,104,WeatherCatV1.23B16,2013-12-27 16:37:00,
2013-12-27 08:42:00,35.5,12.4,30.36,WNW,288,4.0,5.0,38,0.00,,,0.00,104,WeatherCatV1.23B16,2013-12-27 16:42:00,
2013-12-27 08:47:00,35.3,12.8,30.37,WNW,288,3.0,5.0,39,0.00,,,0.00,121,WeatherCatV1.23B16,2013-12-27 16:47:00,
2013-12-27 08:52:00,35.3,12.8,30.37,WNW,283,3.0,5.0,39,0.00,,,0.00,127,WeatherCatV1.23B16,2013-12-27 16:52:00,
2013-12-27 08:57:00,35.2,13.3,30.37,WNW,288,4.0,5.0,40,0.00,,,0.00,135,WeatherCatV1.23B16,2013-12-27 16:57:00,
2013-12-27 09:02:00,35.0,13.1,30.37,WNW,293,4.0,7.0,40,0.00,,,0.00,156,WeatherCatV1.23B16,2013-12-27 17:02:00,
2013-12-27 09:07:00,34.9,13.6,30.37,WNW,298,5.0,8.0,41,0.00,,,0.00,151,WeatherCatV1.23B16,2013-12-27 17:07:00,
2013-12-27 09:12:00,34.9,12.5,30.37,WNW,293,5.0,9.0,39,0.00,,,0.00,179,WeatherCatV1.23B16,2013-12-27 17:12:00,
2013-12-27 09:17:00,35.3,10.4,30.35,WNW,288,6.0,7.0,35,0.00,,,0.00,204,WeatherCatV1.23B16,2013-12-27 17:17:00,
2013-12-27 09:22:00,35.8,9.5,30.35,WNW,293,5.0,7.0,33,0.00,,,0.00,206,WeatherCatV1.23B16,2013-12-27 17:22:00,
2013-12-27 09:27:00,36.3,7.9,30.35,WNW,299,4.0,5.0,30,0.00,,,0.00,193,WeatherCatV1.23B16,2013-12-27 17:27:00,
2013-12-27 09:32:00,36.9,6.9,30.34,WNW,303,4.0,5.0,28,0.00,,,0.00,213,WeatherCatV1.23B16,2013-12-27 17:32:00,
2013-12-27 09:37:00,37.3,7.2,30.34,WNW,303,4.0,5.0,28,0.00,,,0.00,211,WeatherCatV1.23B16,2013-12-27 17:37:00,
2013-12-27 09:42:00,37.9,6.9,30.34,WNW,288,2.0,6.0,27,0.00,,,0.00,244,WeatherCatV1.23B16,2013-12-27 17:42:00,
2013-12-27 09:47:00,38.6,5.9,30.34,WNW,293,4.0,6.0,25,0.00,,,0.00,264,WeatherCatV1.23B16,2013-12-27 17:47:00,
2013-12-27 09:52:00,39.2,8.9,30.34,WNW,293,5.0,7.0,28,0.00,,,0.00,283,WeatherCatV1.23B16,2013-12-27 17:52:00,
2013-12-27 09:57:00,39.3,10.5,30.34,WNW,297,3.0,5.0,30,0.00,,,0.00,292,WeatherCatV1.23B16,2013-12-27 17:57:00,
2013-12-27 10:02:00,39.3,11.9,30.32,NW,308,4.0,5.0,32,0.00,,,0.00,278,WeatherCatV1.23B16,2013-12-27 18:02:00,
2013-12-27 10:07:00,39.2,10.4,30.32,NW,308,4.0,5.0,30,0.00,,,0.00,323,WeatherCatV1.23B16,2013-12-27 18:07:00,
2013-12-27 10:12:00,39.5,9.9,30.32,WNW,293,7.0,7.0,29,0.00,,,0.00,315,WeatherCatV1.23B16,2013-12-27 18:12:00,
2013-12-27 10:17:00,39.8,8.6,30.32,WNW,293,5.0,6.0,27,0.00,,,0.00,383,WeatherCatV1.23B16,2013-12-27 18:17:00,
2013-12-27 10:22:00,40.5,9.2,30.32,NW,304,6.0,9.0,27,0.00,,,0.00,399,WeatherCatV1.23B16,2013-12-27 18:22:00,
2013-12-27 10:27:00,41.1,11.3,30.32,WNW,288,5.0,6.0,29,0.00,,,0.00,302,WeatherCatV1.23B16,2013-12-27 18:27:00,
2013-12-27 10:32:00,41.3,15.7,30.31,WNW,283,6.0,8.0,35,0.00,,,0.00,306,WeatherCatV1.23B16,2013-12-27 18:32:00,
2013-12-27 10:37:00,41.1,16.8,30.31,WNW,297,6.0,9.0,37,0.00,,,0.00,264,WeatherCatV1.23B16,2013-12-27 18:37:00,
2013-12-27 10:42:00,40.6,18.2,30.31,WNW,283,5.0,7.0,40,0.00,,,0.00,353,WeatherCatV1.23B16,2013-12-27 18:42:00,
2013-12-27 10:47:00,40.2,17.8,30.30,WNW,301,7.0,7.0,40,0.00,,,0.00,376,WeatherCatV1.23B16,2013-12-27 18:47:00,
2013-12-27 10:52:00,40.1,14.7,30.30,WNW,288,5.0,7.0,35,0.00,,,0.00,348,WeatherCatV1.23B16,2013-12-27 18:52:00,
2013-12-27 10:57:00,40.2,14.8,30.30,WNW,293,5.0,9.0,35,0.00,,,0.00,434,WeatherCatV1.23B16,2013-12-27 18:57:00,
2013-12-27 11:02:00,40.6,16.4,30.30,WNW,283,5.0,7.0,37,0.00,,,0.00,397,WeatherCatV1.23B16,2013-12-27 19:02:00,
2013-12-27 11:07:00,40.9,17.3,30.30,WNW,301,5.0,7.0,38,0.00,,,0.00,348,WeatherCatV1.23B16,2013-12-27 19:07:00,
2013-12-27 11:12:00,41.2,18.7,30.30,WNW,288,6.0,6.0,40,0.00,,,0.00,406,WeatherCatV1.23B16,2013-12-27 19:12:00,
2013-12-27 11:17:00,41.6,13.9,30.31,West,273,7.0,10.0,32,0.00,,,0.00,380,WeatherCatV1.23B16,2013-12-27 19:17:00,
2013-12-27 11:22:00,42.2,14.5,30.31,NW,307,6.0,7.0,32,0.00,,,0.00,432,WeatherCatV1.23B16,2013-12-27 19:22:00,
2013-12-27 11:27:00,42.8,12.0,30.31,WNW,297,5.0,12.0,28,0.00,,,0.00,399,WeatherCatV1.23B16,2013-12-27 19:27:00,
2013-12-27 11:32:00,43.1,19.2,30.29,WNW,288,4.0,9.0,38,0.00,,,0.00,466,WeatherCatV1.23B16,2013-12-27 19:32:00,
2013-12-27 11:37:00,42.9,20.8,30.29,WNW,298,6.0,8.0,41,0.00,,,0.00,322,WeatherCatV1.23B16,2013-12-27 19:37:00,
2013-12-27 11:42:00,42.6,21.7,30.29,WNW,293,5.0,7.0,43,0.00,,,0.00,318,WeatherCatV1.23B16,2013-12-27 19:42:00,
2013-12-27 11:47:00,42.2,20.2,30.27,NW,312,6.0,9.0,41,0.00,,,0.00,357,WeatherCatV1.23B16,2013-12-27 19:47:00,
2013-12-27 11:52:00,41.9,21.6,30.27,WNW,297,4.0,9.0,44,0.00,,,0.00,309,WeatherCatV1.23B16,2013-12-27 19:52:00,
2013-12-27 11:57:00,41.8,20.4,30.27,West,266,6.0,11.0,42,0.00,,,0.00,295,WeatherCatV1.23B16,2013-12-27 19:57:00,
2013-12-27 12:02:00,41.8,19.3,30.26,West,260,6.0,10.0,40,0.00,,,0.00,357,WeatherCatV1.23B16,2013-12-27 20:02:00,
2013-12-27 12:07:00,41.9,18.8,30.26,West,270,6.0,10.0,39,0.00,,,0.00,304,WeatherCatV1.23B16,2013-12-27 20:07:00,
2013-12-27 12:12:00,41.9,18.2,30.26,WNW,283,4.0,12.0,38,0.00,,,0.00,295,WeatherCatV1.23B16,2013-12-27 20:12:00,
2013-12-27 12:17:00,42.1,21.8,30.29,WNW,288,2.0,6.0,44,0.00,,,0.00,276,WeatherCatV1.23B16,2013-12-27 20:17:00,
2013-12-27 12:23:00,42.1,17.7,30.29,WNW,283,4.0,7.0,37,0.00,,,0.00,274,WeatherCatV1.23B16,2013-12-27 20:23:00,
2013-12-27 12:28:00,42.5,16.8,30.29,WNW,288,9.0,11.0,35,0.00,,,0.00,348,WeatherCatV1.23B16,2013-12-27 20:28:00,
2013-12-27 12:33:00,42.9,14.4,30.27,West,278,3.0,6.0,31,0.00,,,0.00,339,WeatherCatV1.23B16,2013-12-27 20:33:00,
2013-12-27 12:38:00,43.6,16.4,30.27,WNW,293,9.0,11.0,33,0.00,,,0.00,301,WeatherCatV1.23B16,2013-12-27 20:38:00,
2013-12-27 12:43:00,43.9,15.2,30.27,West,271,6.0,10.0,31,0.00,,,0.00,253,WeatherCatV1.23B16,2013-12-27 20:43:00,
2013-12-27 12:48:00,44.1,17.5,30.27,WNW,283,6.0,11.0,34,0.00,,,0.00,243,WeatherCatV1.23B16,2013-12-27 20:48:00,
2013-12-27 12:53:00,44.1,14.7,30.27,West,269,10.0,13.0,30,0.00,,,0.00,241,WeatherCatV1.23B16,2013-12-27 20:53:00,
2013-12-27 12:58:00,44.2,14.0,30.27,West,278,7.0,7.0,29,0.00,,,0.00,250,WeatherCatV1.23B16,2013-12-27 20:58:00,
2013-12-27 13:03:00,44.2,14.0,30.26,WNW,283,3.0,9.0,29,0.00,,,0.00,239,WeatherCatV1.23B16,2013-12-27 21:03:00,
2013-12-27 13:08:00,44.3,13.3,30.26,WNW,283,6.0,11.0,28,0.00,,,0.00,236,WeatherCatV1.23B16,2013-12-27 21:08:00,
2013-12-27 13:13:00,44.5,13.4,30.26,WNW,293,5.0,11.0,28,0.00,,,0.00,234,WeatherCatV1.23B16,2013-12-27 21:13:00,
2013-12-27 13:18:00,44.8,14.5,30.27,WSW,257,3.0,9.0,29,0.00,,,0.00,279,WeatherCatV1.23B16,2013-12-27 21:18:00,
2013-12-27 13:23:00,44.8,16.0,30.27,West,270,5.0,10.0,31,0.00,,,0.00,332,WeatherCatV1.23B16,2013-12-27 21:23:00,
2013-12-27 13:28:00,44.8,18.2,30.27,WNW,288,9.0,10.0,34,0.00,,,0.00,246,WeatherCatV1.23B16,2013-12-27 21:28:00,
2013-12-27 13:33:00,44.5,18.6,30.25,WNW,288,7.0,11.0,35,0.00,,,0.00,227,WeatherCatV1.23B16,2013-12-27 21:33:00,
2013-12-27 13:38:00,44.3,15.6,30.25,WNW,283,7.0,12.0,31,0.00,,,0.00,213,WeatherCatV1.23B16,2013-12-27 21:38:00,
2013-12-27 13:43:00,44.2,18.3,30.25,WNW,297,7.0,8.0,35,0.00,,,0.00,193,WeatherCatV1.23B16,2013-12-27 21:43:00,
2013-12-27 13:48:00,43.9,18.0,30.25,West,272,5.0,10.0,35,0.00,,,0.00,186,WeatherCatV1.23B16,2013-12-27 21:48:00,
2013-12-27 13:53:00,43.6,19.1,30.25,NW,304,9.0,11.0,37,0.00,,,0.00,179,WeatherCatV1.23B16,2013-12-27 21:53:00,
2013-12-27 13:58:00,43.3,19.4,30.25,WNW,288,5.0,11.0,38,0.00,,,0.00,178,WeatherCatV1.23B16,2013-12-27 21:58:00,
2013-12-27 14:03:00,43.1,19.2,30.26,West,278,7.0,10.0,38,0.00,,,0.00,172,WeatherCatV1.23B16,2013-12-27 22:03:00,
2013-12-27 14:08:00,42.8,21.3,30.26,WNW,293,9.0,11.0,42,0.00,,,0.00,153,WeatherCatV1.23B16,2013-12-27 22:08:00,
2013-12-27 14:13:00,42.5,21.6,30.26,West,260,6.0,10.0,43,0.00,,,0.00,144,WeatherCatV1.23B16,2013-12-27 22:13:00,
2013-12-27 14:18:00,42.3,22.0,30.26,WNW,283,8.0,12.0,44,0.00,,,0.00,285,WeatherCatV1.23B16,2013-12-27 22:18:00,
2013-12-27 14:23:00,42.2,22.4,30.26,WNW,303,8.0,10.0,45,0.00,,,0.00,315,WeatherCatV1.23B16,2013-12-27 22:23:00,
2013-12-27 14:28:00,42.3,20.9,30.26,WNW,288,9.0,13.0,42,0.00,,,0.00,322,WeatherCatV1.23B16,2013-12-27 22:28:00,
2013-12-27 14:33:00,42.6,21.1,30.26,WNW,293,7.0,11.0,42,0.00,,,0.00,264,WeatherCatV1.23B16,2013-12-27 22:33:00,
2013-12-27 14:38:00,42.9,20.8,30.26,WNW,297,9.0,15.0,41,0.00,,,0.00,165,WeatherCatV1.23B16,2013-12-27 22:38:00,
2013-12-27 14:43:00,42.9,22.0,30.26,WNW,303,10.0,10.0,43,0.00,,,0.00,156,WeatherCatV1.23B16,2013-12-27 22:43:00,
2013-12-27 14:48:00,42.8,23.0,30.26,WNW,288,7.0,13.0,45,0.00,,,0.00,144,WeatherCatV1.23B16,2013-12-27 22:48:00,
2013-12-27 14:53:00,42.6,22.8,30.26,NW,313,6.0,11.0,45,0.00,,,0.00,141,WeatherCatV1.23B16,2013-12-27 22:53:00,
2013-12-27 14:58:00,42.3,22.5,30.26,WNW,297,9.0,11.0,45,0.00,,,0.00,139,WeatherCatV1.23B16,2013-12-27 22:58:00,
2013-12-27 15:03:00,42.2,21.3,30.26,West,273,9.0,10.0,43,0.00,,,0.00,137,WeatherCatV1.23B16,2013-12-27 23:03:00,
2013-12-27 15:08:00,42.1,21.8,30.26,WNW,283,7.0,13.0,44,0.00,,,0.00,123,WeatherCatV1.23B16,2013-12-27 23:08:00,
2013-12-27 15:13:00,41.8,22.0,30.26,WNW,288,6.0,11.0,45,0.00,,,0.00,107,WeatherCatV1.23B16,2013-12-27 23:13:00,
2013-12-27 15:18:00,41.5,20.7,30.25,WNW,283,6.0,11.0,43,0.00,,,0.00,97,WeatherCatV1.23B16,2013-12-27 23:18:00,
2013-12-27 15:23:00,41.3,21.0,30.25,WNW,288,5.0,12.0,44,0.00,,,0.00,95,WeatherCatV1.23B16,2013-12-27 23:23:00,
2013-12-27 15:28:00,41.2,19.9,30.25,NW,310,9.0,12.0,42,0.00,,,0.00,90,WeatherCatV1.23B16,2013-12-27 23:28:00,
2013-12-27 15:33:00,41.2,18.1,30.25,NW,316,11.0,13.0,39,0.00,,,0.00,84,WeatherCatV1.23B16,2013-12-27 23:33:00,
2013-12-27 15:38:00,41.3,17.0,30.25,WNW,302,12.0,12.0,37,0.00,,,0.00,86,WeatherCatV1.23B16,2013-12-27 23:38:00,
2013-12-27 15:43:00,41.6,14.7,30.25,WNW,293,7.0,13.0,33,0.00,,,0.00,76,WeatherCatV1.23B16,2013-12-27 23:43:00,
2013-12-27 15:48:00,41.9,11.2,30.26,WNW,293,9.0,12.0,28,0.00,,,0.00,60,WeatherCatV1.23B16,2013-12-27 23:48:00,
2013-12-27 15:53:00,42.2,10.6,30.26,NW,307,11.0,13.0,27,0.00,,,0.00,53,WeatherCatV1.23B16,2013-12-27 23:53:00,
2013-12-27 15:58:00,42.6,10.1,30.26,NW,305,12.0,14.0,26,0.00,,,0.00,46,WeatherCatV1.23B16,2013-12-27 23:58:00,
2013-12-27 16:03:00,42.6,8.4,30.24,WNW,293,7.0,13.0,24,0.00,,,0.00,37,WeatherCatV1.23B16,2013-12-28 00:03:00,
2013-12-27 16:08:00,42.8,9.4,30.24,NW,306,11.0,12.0,25,0.00,,,0.00,32,WeatherCatV1.23B16,2013-12-28 00:08:00,
2013-12-27 16:13:00,42.9,7.7,30.24,WNW,288,5.0,12.0,23,0.00,,,0.00,33,WeatherCatV1.23B16,2013-12-28 00:13:00,
2013-12-27 16:18:00,43.1,8.8,30.23,WNW,288,9.0,10.0,24,0.00,,,0.00,23,WeatherCatV1.23B16,2013-12-28 00:18:00,
2013-12-27 16:23:00,43.1,6.9,30.23,NW,305,10.0,13.0,22,0.00,,,0.00,19,WeatherCatV1.23B16,2013-12-28 00:23:00,
2013-12-27 16:28:00,43.2,5.9,30.23,WNW,303,9.0,13.0,21,0.00,,,0.00,16,WeatherCatV1.23B16,2013-12-28 00:28:00,
2013-12-27 16:33:00,43.3,6.0,30.23,NNW,328,12.0,12.0,21,0.00,,,0.00,12,WeatherCatV1.23B16,2013-12-28 00:33:00,
2013-12-27 16:38:00,43.3,3.8,30.23,WNW,299,4.0,6.0,19,0.00,,,0.00,9,WeatherCatV1.23B16,2013-12-28 00:38:00,
2013-12-27 16:43:00,43.3,6.0,30.23,NW,322,6.0,13.0,21,0.00,,,0.00,0,WeatherCatV1.23B16,2013-12-28 00:43:00,
2013-12-27 16:48:00,43.2,3.8,30.23,WNW,283,8.0,13.0,19,0.00,,,0.00,0,WeatherCatV1.23B16,2013-12-28 00:48:00,
2013-12-27 16:53:00,43.2,4.9,30.23,WNW,293,10.0,13.0,20,0.00,,,0.00,0,WeatherCatV1.23B16,2013-12-28 00:53:00,
2013-12-27 16:58:00,42.9,4.6,30.23,WNW,288,7.0,13.0,20,0.00,,,0.00,0,WeatherCatV1.23B16,2013-12-28 00:58:00,
2013-12-27 17:03:00,43.1,5.9,30.23,West,278,7.0,10.0,21,0.00,,,0.00,0,WeatherCatV1.23B16,2013-12-28 01:03:00,
2013-12-27 17:08:00,42.8,6.6,30.23,WNW,293,9.0,11.0,22,0.00,,,0.00,0,WeatherCatV1.23B16,2013-12-28 01:08:00,
2013-12-27 17:13:00,42.6,5.4,30.23,NW,309,8.0,11.0,21,0.00,,,0.00,0,WeatherCatV1.23B16,2013-12-28 01:13:00,
2013-12-27 17:18:00,42.6,5.4,30.23,WNW,283,8.0,11.0,21,0.00,,,0.00,0,WeatherCatV1.23B16,2013-12-28 01:18:00,
2013-12-27 17:23:00,42.6,5.4,30.23,WNW,293,2.0,6.0,21,0.00,,,0.00,0,WeatherCatV1.23B16,2013-12-28 01:23:00,
2013-12-27 17:28:00,42.5,4.3,30.23,WNW,293,5.0,11.0,20,0.00,,,0.00,0,WeatherCatV1.23B16,2013-12-28 01:28:00,
2013-12-27 17:33:00,42.3,4.1,30.23,NW,308,6.0,7.0,20,0.00,,,0.00,0,WeatherCatV1.23B16,2013-12-28 01:33:00,
2013-12-27 17:38:00,42.3,4.1,30.23,NW,305,7.0,9.0,20,0.00,,,0.00,0,WeatherCatV1.23B16,2013-12-28 01:38:00,
2013-12-27 17:43:00,42.3,3.0,30.23,WNW,288,6.0,11.0,19,0.00,,,0.00,0,WeatherCatV1.23B16,2013-12-28 01:43:00,
2013-12-27 17:48:00,42.5,2.0,30.24,WNW,303,5.0,7.0,18,0.00,,,0.00,0,WeatherCatV1.23B16,2013-12-28 01:48:00,
2013-12-27 17:53:00,42.5,0.8,30.24,WNW,297,12.0,12.0,17,0.00,,,0.00,0,WeatherCatV1.23B16,2013-12-28 01:53:00,
2013-12-27 17:58:00,42.8,-0.2,30.24,NW,316,9.0,12.0,16,0.00,,,0.00,0,WeatherCatV1.23B16,2013-12-28 01:58:00,
2013-12-27 18:03:00,42.9,-0.2,30.22,NW,319,4.0,11.0,16,0.00,,,0.00,0,WeatherCatV1.23B16,2013-12-28 02:03:00,
2013-12-27 18:08:00,42.9,1.1,30.22,West,267,4.0,5.0,17,0.00,,,0.00,0,WeatherCatV1.23B16,2013-12-28 02:08:00,
2013-12-27 18:13:00,42.9,-0.2,30.22,West,266,3.0,4.0,16,0.00,,,0.00,0,WeatherCatV1.23B16,2013-12-28 02:13:00,
2013-12-27 18:18:00,42.8,-0.2,30.22,WNW,297,4.0,5.0,16,0.00,,,0.00,0,WeatherCatV1.23B16,2013-12-28 02:18:00,
2013-12-27 18:23:00,42.8,-1.6,30.22,WNW,303,4.0,6.0,15,0.00,,,0.00,0,WeatherCatV1.23B16,2013-12-28 02:23:00,
2013-12-27 18:28:00,42.6,-1.8,30.22,WNW,299,6.0,6.0,15,0.00,,,0.00,0,WeatherCatV1.23B16,2013-12-28 02:28:00,
2013-12-27 18:33:00,42.6,-1.8,30.22,WNW,293,2.0,5.0,15,0.00,,,0.00,0,WeatherCatV1.23B16,2013-12-28 02:33:00,
2013-12-27 18:38:00,42.6,-1.8,30.22,WNW,297,3.0,6.0,15,0.00,,,0.00,0,WeatherCatV1.23B16,2013-12-28 02:38:00,
2013-12-27 18:43:00,42.5,-1.9,30.22,WNW,288,6.0,6.0,15,0.00,,,0.00,0,WeatherCatV1.23B16,2013-12-28 02:43:00,
2013-12-27 18:48:00,42.5,-1.9,30.22,WNW,302,5.0,8.0,15,0.00,,,0.00,0,WeatherCatV1.23B16,2013-12-28 02:48:00,
2013-12-27 18:53:00,42.3,-2.0,30.22,WNW,293,5.0,8.0,15,0.00,,,0.00,0,WeatherCatV1.23B16,2013-12-28 02:53:00,
2013-12-27 18:58:00,42.2,-0.7,30.22,NW,310,9.0,9.0,16,0.00,,,0.00,0,WeatherCatV1.23B16,2013-12-28 02:58:00,
2013-12-27 19:03:00,41.8,-1.0,30.23,WNW,283,6.0,11.0,16,0.00,,,0.00,0,WeatherCatV1.23B16,2013-12-28 03:03:00,
2013-12-27 19:08:00,41.5,1.2,30.23,West,272,5.0,6.0,18,0.00,,,0.00,0,WeatherCatV1.23B16,2013-12-28 03:08:00,
2013-12-27 19:13:00,41.1,3.1,30.23,West,278,4.0,7.0,20,0.00,,,0.00,0,WeatherCatV1.23B16,2013-12-28 03:13:00,
2013-12-27 19:18:00,40.6,2.7,30.24,WNW,288,5.0,7.0,20,0.00,,,0.00,0,WeatherCatV1.23B16,2013-12-28 03:18:00,
2013-12-27 19:23:00,40.3,2.5,30.24,NW,314,4.0,6.0,20,0.00,,,0.00,0,WeatherCatV1.23B16,2013-12-28 03:23:00,
2013-12-27 19:28:00,40.2,1.3,30.24,NW,320,4.0,5.0,19,0.00,,,0.00,0,WeatherCatV1.23B16,2013-12-28 03:28:00,
2013-12-27 19:33:00,40.2,1.3,30.25,NW,312,4.0,7.0,19,0.00,,,0.00,0,WeatherCatV1.23B16,2013-12-28 03:33:00,
2013-12-27 19:38:00,40.2,-1.1,30.25,WNW,293,4.0,6.0,17,0.00,,,0.00,0,WeatherCatV1.23B16,2013-12-28 03:38:00,
2013-12-27 19:43:00,40.3,-1.0,30.25,WNW,301,6.0,7.0,17,0.00,,,0.00,0,WeatherCatV1.23B16,2013-12-28 03:43:00,
2013-12-27 19:48:00,40.5,-2.1,30.25,WNW,293,5.0,7.0,16,0.00,,,0.00,0,WeatherCatV1.23B16,2013-12-28 03:48:00,
2013-12-27 19:53:00,40.6,-2.0,30.25,WNW,301,8.0,10.0,16,0.00,,,0.00,0,WeatherCatV1.23B16,2013-12-28 03:53:00,
2013-12-27 19:58:00,40.6,-0.8,30.25,WNW,299,5.0,10.0,17,0.00,,,0.00,0,WeatherCatV1.23B16,2013-12-28 03:58:00,
2013-12-27 20:03:00,40.3,0.2,30.24,WNW,288,2.0,5.0,18,0.00,,,0.00,0,WeatherCatV1.23B16,2013-12-28 04:03:00,
2013-12-27 20:08:00,40.1,1.2,30.24,WNW,300,9.0,9.0,19,0.00,,,0.00,0,WeatherCatV1.23B16,2013-12-28 04:08:00,
2013-12-27 20:13:00,39.8,0.9,30.24,WNW,293,5.0,5.0,19,0.00,,,0.00,0,WeatherCatV1.23B16,2013-12-28 04:13:00,
2013-12-27 20:18:00,39.6,-0.4,30.25,NW,310,4.0,9.0,18,0.00,,,0.00,0,WeatherCatV1.23B16,2013-12-28 04:18:00,
2013-12-27 20:23:00,39.8,-2.7,30.25,WNW,297,6.0,10.0,16,0.00,,,0.00,0,WeatherCatV1.23B16,2013-12-28 04:23:00,
2013-12-27 20:28:00,39.9,-2.6,30.25,NW,309,5.0,10.0,16,0.00,,,0.00,0,WeatherCatV1.23B16,2013-12-28 04:28:00,
2013-12-27 20:33:00,40.1,-2.4,30.25,WNW,299,3.0,7.0,16,0.00,,,0.00,0,WeatherCatV1.23B16,2013-12-28 04:33:00,
2013-12-27 20:38:00,40.2,-2.4,30.25,WNW,293,4.0,5.0,16,0.00,,,0.00,0,WeatherCatV1.23B16,2013-12-28 04:38:00,
2013-12-27 20:43:00,40.1,-2.4,30.25,NW,308,5.0,9.0,16,0.00,,,0.00,0,WeatherCatV1.23B16,2013-12-28 04:43:00,
2013-12-27 20:48:00,39.9,-2.6,30.25,NW,307,7.0,8.0,16,0.00,,,0.00,0,WeatherCatV1.23B16,2013-12-28 04:48:00,
2013-12-27 20:53:00,39.9,-2.6,30.25,NW,306,2.0,6.0,16,0.00,,,0.00,0,WeatherCatV1.23B16,2013-12-28 04:53:00,
2013-12-27 20:58:00,39.8,-1.4,30.25,WNW,293,5.0,5.0,17,0.00,,,0.00,0,WeatherCatV1.23B16,2013-12-28 04:58:00,
2013-12-27 21:01:00,39.8,-1.4,30.25,WNW,297,0.0,4.0,17,0.00,,,0.00,0,WeatherCatV1.23B16,2013-12-28 05:01:00,
2013-12-27 21:02:00,39.6,-1.6,30.25,WNW,297,0.0,1.0,17,0.00,,,0.00,0,WeatherCatV1.23B16,2013-12-28 05:02:00,
2013-12-27 21:04:00,39.6,-4.2,30.25,WNW,301,0.0,6.0,15,0.00,,,0.00,0,WeatherCatV1.23B16,2013-12-28 05:04:00,
2013-12-27 21:06:00,39.6,-4.2,30.25,WNW,301,0.0,0.0,15,0.00,,,0.00,0,WeatherCatV1.23B16,2013-12-28 05:06:00,
2013-12-27 21:07:00,39.6,-2.8,30.25,WNW,301,0.0,0.0,16,0.00,,,0.00,0,WeatherCatV1.23B16,2013-12-28 05:07:00,
2013-12-27 21:12:00,39.5,-2.9,30.25,WNW,301,0.0,1.0,16,0.00,,,0.00,0,WeatherCatV1.23B16,2013-12-28 05:12:00,
2013-12-27 21:15:00,39.5,-4.3,30.21,WNW,302,0.0,2.0,15,0.00,,,0.00,0,WeatherCatV1.23B16,2013-12-28 05:15:00,
2013-12-27 21:21:00,39.3,-3.1,30.21,WNW,302,0.0,1.0,16,0.00,,,0.00,0,WeatherCatV1.23B16,2013-12-28 05:21:00,
2013-12-27 21:26:00,39.2,-4.5,30.21,WNW,302,0.0,0.0,15,0.00,,,0.00,0,WeatherCatV1.23B16,2013-12-28 05:26:00,
2013-12-27 21:31:00,39.1,-4.6,30.21,NW,304,0.0,0.0,15,0.00,,,0.00,0,WeatherCatV1.23B16,2013-12-28 05:31:00,
2013-12-27 21:36:00,39.3,-5.9,30.21,NW,306,3.0,3.0,14,0.00,,,0.00,0,WeatherCatV1.23B16,2013-12-28 05:36:00,
2013-12-27 21:41:00,39.3,-5.9,30.21,NW,307,3.0,3.0,14,0.00,,,0.00,0,WeatherCatV1.23B16,2013-12-28 05:41:00,
2013-12-27 21:46:00,39.5,-5.7,30.20,NW,326,0.0,3.0,14,0.00,,,0.00,0,WeatherCatV1.23B16,2013-12-28 05:46:00,
2013-12-27 21:51:00,39.3,-5.9,30.20,NW,326,2.0,4.0,14,0.00,,,0.00,0,WeatherCatV1.23B16,2013-12-28 05:51:00,
2013-12-27 21:56:00,40.1,-6.7,30.20,NE,51,0.0,0.0,13,0.00,,,0.00,0,WeatherCatV1.23B16,2013-12-28 05:56:00,
2013-12-27 22:01:00,39.9,-6.9,30.19,NE,52,0.0,2.0,13,0.00,,,0.00,0,WeatherCatV1.23B16,2013-12-28 06:01:00,
2013-12-27 22:06:00,39.9,-8.5,30.19,NE,52,0.0,4.0,12,0.00,,,0.00,0,WeatherCatV1.23B16,2013-12-28 06:06:00,
2013-12-27 22:11:00,40.1,-8.4,30.19,NE,51,0.0,3.0,12,0.00,,,0.00,0,WeatherCatV1.23B16,2013-12-28 06:11:00,
2013-12-27 22:16:00,39.9,-6.9,30.17,NE,51,0.0,0.0,13,0.00,,,0.00,0,WeatherCatV1.23B16,2013-12-28 06:16:00,
2013-12-27 22:21:00,39.8,-8.6,30.17,NE,51,1.0,2.0,12,0.00,,,0.00,0,WeatherCatV1.23B16,2013-12-28 06:21:00,
2013-12-27 22:26:00,39.6,-7.1,30.17,NE,46,0.0,3.0,13,0.00,,,0.00,0,WeatherCatV1.23B16,2013-12-28 06:26:00,
2013-12-27 22:31:00,39.3,-7.4,30.17,NE,45,0.0,2.0,13,0.00,,,0.00,0,WeatherCatV1.23B16,2013-12-28 06:31:00,
2013-12-27 22:36:00,39.3,-9.0,30.17,NNE,26,0.0,4.0,12,0.00,,,0.00,0,WeatherCatV1.23B16,2013-12-28 06:36:00,
2013-12-27 22:41:00,39.5,-8.9,30.17,NNE,24,0.0,3.0,12,0.00,,,0.00,0,WeatherCatV1.23B16,2013-12-28 06:41:00,
2013-12-27 22:46:00,39.5,-8.9,30.16,North,10,4.0,4.0,12,0.00,,,0.00,0,WeatherCatV1.23B16,2013-12-28 06:46:00,
2013-12-27 22:51:00,39.5,-8.9,30.16,NW,305,1.0,3.0,12,0.00,,,0.00,0,WeatherCatV1.23B16,2013-12-28 06:51:00,
2013-12-27 22:56:00,39.5,-8.9,30.16,WNW,303,0.0,4.0,12,0.00,,,0.00,0,WeatherCatV1.23B16,2013-12-28 06:56:00,
2013-12-27 23:01:00,39.5,-7.2,30.16,WNW,303,0.0,0.0,13,0.00,,,0.00,0,WeatherCatV1.23B16,2013-12-28 07:01:00,
2013-12-27 23:06:00,39.3,-9.0,30.16,WNW,303,0.0,0.0,12,0.00,,,0.00,0,WeatherCatV1.23B16,2013-12-28 07:06:00,
2013-12-27 23:11:00,39.3,-9.0,30.16,South,182,0.0,0.0,12,0.00,,,0.00,0,WeatherCatV1.23B16,2013-12-28 07:11:00,
2013-12-27 23:16:00,39.2,-9.1,30.15,South,182,0.0,0.0,12,0.00,,,0.00,0,WeatherCatV1.23B16,2013-12-28 07:16:00,
2013-12-27 23:21:00,39.1,-9.2,30.15,South,182,0.0,1.0,12,0.00,,,0.00,0,WeatherCatV1.23B16,2013-12-28 07:21:00,
2013-12-27 23:26:00,39.1,-9.2,30.15,South,182,0.0,0.0,12,0.00,,,0.00,0,WeatherCatV1.23B16,2013-12-28 07:26:00,
2013-12-27 23:31:00,39.1,-9.2,30.14,NNW,331,2.0,4.0,12,0.00,,,0.00,0,WeatherCatV1.23B16,2013-12-28 07:31:00,
2013-12-27 23:36:00,38.9,-7.7,30.14,NW,326,0.0,5.0,13,0.00,,,0.00,0,WeatherCatV1.23B16,2013-12-28 07:36:00,
2013-12-27 23:41:00,38.9,-7.7,30.14,NW,320,0.0,6.0,13,0.00,,,0.00,0,WeatherCatV1.23B16,2013-12-28 07:41:00,
2013-12-27 23:46:00,38.8,-6.3,30.14,NW,305,3.0,5.0,14,0.00,,,0.00,0,WeatherCatV1.23B16,2013-12-28 07:46:00,
2013-12-27 23:51:00,38.8,-4.8,30.14,NNW,330,4.0,4.0,15,0.00,,,0.00,0,WeatherCatV1.23B16,2013-12-28 07:51:00,
2013-12-27 23:56:00,38.3,-3.9,30.14,NW,318,3.0,7.0,16,0.00,,,0.00,0,WeatherCatV1.23B16,2013-12-28 07:56:00,